Time;durP1;ratioP1;P1;durP2;ratioP2;P2;SDS_P1;SDS_P2;PMS_P1;PMS_P2;Temp;Humidity;BMP_temperature;BMP_pressure;BME280_temperature;BME280_humidity;BME280_pressure;Samples;Min_cycle;Max_cycle;Signal;HPM_P1;HPM_P2
2023/02/01 00:00:32;;;;;;;20.63;18.70;;;;;;;;;;5102955;28;20206;-79
2023/02/01 00:03:01;;;;;;;22.45;20.40;;;;;;;;;;5102074;28;20221;-78
2023/02/01 00:05:28;;;;;;;21.15;19.00;;;;;;;;;;5101204;28;20225;-78
2023/02/01 00:07:55;;;;;;;21.50;19.45;;;;;;;;;;5100055;28;20293;-78
2023/02/01 00:10:22;;;;;;;20.48;18.70;;;;;;;;;;5101244;28;20209;-78
2023/02/01 00:12:50;;;;;;;21.80;19.48;;;;;;;;;;5099592;28;20691;-78
2023/02/01 00:15:17;;;;;;;20.45;18.73;;;;;;;;;;5100274;28;20226;-78
2023/02/01 00:17:46;;;;;;;24.52;21.88;;;;;;;;;;5102586;28;20205;-78
2023/02/01 00:20:14;;;;;;;20.58;19.00;;;;;;;;;;5102743;28;20262;-78
2023/02/01 00:22:41;;;;;;;20.83;18.85;;;;;;;;;;5100071;28;20186;-78
2023/02/01 00:25:08;;;;;;;21.08;18.98;;;;;;;;;;5102393;28;20229;-78
2023/02/01 00:27:35;;;;;;;25.13;22.83;;;;;;;;;;5101434;28;20205;-78
2023/02/01 00:30:03;;;;;;;21.35;19.25;;;;;;;;;;5102358;28;20204;-78
2023/02/01 00:32:31;;;;;;;21.25;19.48;;;;;;;;;;5100766;28;20235;-78
2023/02/01 00:35:01;;;;;;;21.17;19.17;;;;;;;;;;5101019;28;20235;-78
2023/02/01 00:37:28;;;;;;;21.52;19.63;;;;;;;;;;5105683;28;20229;-78
2023/02/01 00:39:55;;;;;;;19.60;18.40;;;;;;;;;;5100513;28;20214;-78
2023/02/01 00:42:22;;;;;;;23.05;19.45;;;;;;;;;;5099499;28;20637;-78
2023/02/01 00:44:49;;;;;;;20.50;18.83;;;;;;;;;;5101365;28;20225;-79
2023/02/01 00:47:16;;;;;;;21.15;19.20;;;;;;;;;;5106153;28;20287;-78
2023/02/01 00:49:43;;;;;;;20.75;19.05;;;;;;;;;;5104496;28;20209;-78
2023/02/01 00:52:12;;;;;;;20.90;19.08;;;;;;;;;;5104020;28;20274;-78
2023/02/01 00:54:39;;;;;;;21.05;19.25;;;;;;;;;;5103437;28;20686;-78
2023/02/01 00:57:06;;;;;;;21.27;19.45;;;;;;;;;;5104418;28;20255;-78
2023/02/01 00:59:33;;;;;;;22.92;20.50;;;;;;;;;;5108704;28;20277;-79
2023/02/01 01:02:00;;;;;;;20.13;18.60;;;;;;;;;;5101525;28;20204;-79
2023/02/01 01:04:27;;;;;;;22.23;19.98;;;;;;;;;;5098517;28;20241;-79
2023/02/01 01:06:54;;;;;;;22.48;20.35;;;;;;;;;;5099705;28;20209;-78
2023/02/01 01:09:23;;;;;;;22.25;20.08;;;;;;;;;;5097995;28;20246;-78
2023/02/01 01:11:50;;;;;;;21.92;19.50;;;;;;;;;;5097223;28;20666;-79
2023/02/01 01:14:18;;;;;;;21.40;19.65;;;;;;;;;;5097879;28;20224;-79
2023/02/01 01:16:45;;;;;;;22.13;20.38;;;;;;;;;;5098692;28;20658;-79
2023/02/01 01:19:12;;;;;;;21.73;19.60;;;;;;;;;;5099193;28;20209;-78
2023/02/01 01:21:39;;;;;;;21.60;19.40;;;;;;;;;;5097845;28;20267;-79
2023/02/01 01:24:07;;;;;;;22.38;20.13;;;;;;;;;;5097905;28;20204;-78
2023/02/01 01:26:35;;;;;;;21.88;19.83;;;;;;;;;;5097369;28;20233;-78
2023/02/01 01:29:02;;;;;;;21.27;19.25;;;;;;;;;;5097729;28;20204;-78
2023/02/01 01:31:29;;;;;;;18.45;17.52;;;;;;;;;;5098047;28;20202;-79
2023/02/01 01:33:57;;;;;;;18.75;17.75;;;;;;;;;;5098276;28;20218;-78
2023/02/01 01:36:25;;;;;;;19.33;18.08;;;;;;;;;;5098282;28;20255;-78
2023/02/01 01:38:52;;;;;;;20.88;19.00;;;;;;;;;;5098360;28;20492;-78
2023/02/01 01:41:21;;;;;;;21.40;19.60;;;;;;;;;;5098805;28;20570;-80
2023/02/01 01:43:51;;;;;;;20.30;18.75;;;;;;;;;;5098085;28;20198;-79
2023/02/01 01:46:19;;;;;;;19.33;18.05;;;;;;;;;;5097095;28;20254;-79
2023/02/01 01:48:46;;;;;;;19.58;18.17;;;;;;;;;;5098123;28;20268;-79
2023/02/01 01:51:15;;;;;;;21.83;20.08;;;;;;;;;;5096991;28;20224;-81
2023/02/01 01:53:45;;;;;;;20.75;19.13;;;;;;;;;;5097102;28;20225;-79
2023/02/01 01:56:12;;;;;;;19.60;17.92;;;;;;;;;;5097333;28;20267;-79
2023/02/01 01:58:39;;;;;;;22.05;20.17;;;;;;;;;;5099081;28;20549;-79
2023/02/01 02:01:07;;;;;;;21.33;19.08;;;;;;;;;;5098544;28;20670;-79
2023/02/01 02:03:36;;;;;;;19.55;18.00;;;;;;;;;;5097865;28;20208;-79
2023/02/01 02:06:05;;;;;;;20.13;18.38;;;;;;;;;;5097087;28;20234;-79
2023/02/01 02:08:32;;;;;;;21.08;19.38;;;;;;;;;;5096955;28;20206;-78
2023/02/01 02:11:02;;;;;;;18.92;17.20;;;;;;;;;;5096951;28;20205;-79
2023/02/01 02:13:31;;;;;;;24.00;20.90;;;;;;;;;;5095870;28;20277;-79
2023/02/01 02:16:05;;;;;;;20.80;18.92;;;;;;;;;;5096565;28;20223;-78
2023/02/01 02:18:38;;;;;;;19.88;18.45;;;;;;;;;;5096812;28;20192;-78
2023/02/01 02:21:12;;;;;;;21.30;19.25;;;;;;;;;;5096429;28;20647;-78
2023/02/01 02:24:03;;;;;;;21.70;20.02;;;;;;;;;;5095970;28;20190;-79
2023/02/01 02:26:46;;;;;;;27.50;21.00;;;;;;;;;;5096196;28;20764;-79
2023/02/01 02:29:31;;;;;;;20.83;18.95;;;;;;;;;;5096119;28;20198;-78
2023/02/01 02:32:09;;;;;;;22.25;20.00;;;;;;;;;;5095704;28;20199;-79
2023/02/01 02:34:40;;;;;;;21.80;19.55;;;;;;;;;;5095956;28;20229;-79
2023/02/01 02:37:13;;;;;;;20.30;18.98;;;;;;;;;;5096373;28;20192;-78
2023/02/01 02:39:49;;;;;;;20.20;18.45;;;;;;;;;;5096030;28;20192;-78
2023/02/01 02:47:54;;;;;;;21.83;19.10;;;;;;;;;;5095757;28;20261;-78
2023/02/01 03:04:17;;;;;;;20.55;19.35;;;;;;;;;;5094712;28;20216;-79
2023/02/01 03:06:46;;;;;;;20.50;18.85;;;;;;;;;;5095107;28;20197;-78
2023/02/01 03:09:16;;;;;;;19.95;18.15;;;;;;;;;;5094760;28;20694;-78
2023/02/01 03:14:42;;;;;;;19.27;18.20;;;;;;;;;;5094487;28;20233;-79
2023/02/01 03:17:12;;;;;;;21.02;19.33;;;;;;;;;;5095103;28;20265;-78
2023/02/01 03:19:43;;;;;;;20.48;18.75;;;;;;;;;;5095625;28;20190;-78
2023/02/01 03:22:14;;;;;;;20.10;18.17;;;;;;;;;;5094327;28;20206;-79
2023/02/01 03:24:43;;;;;;;19.70;18.35;;;;;;;;;;5094851;28;20351;-79
2023/02/01 03:27:12;;;;;;;17.90;16.83;;;;;;;;;;5095008;28;20253;-79
2023/02/01 03:29:42;;;;;;;23.42;20.70;;;;;;;;;;5094872;28;20205;-79
2023/02/01 03:32:10;;;;;;;20.70;18.95;;;;;;;;;;5094445;28;20254;-79
2023/02/01 03:34:37;;;;;;;20.33;18.70;;;;;;;;;;5094534;28;20233;-79
2023/02/01 03:37:05;;;;;;;19.70;18.55;;;;;;;;;;5094572;28;20553;-78
2023/02/01 03:39:36;;;;;;;20.58;18.58;;;;;;;;;;5094556;28;20204;-78
2023/02/01 03:42:04;;;;;;;21.15;19.42;;;;;;;;;;5094039;28;20243;-79
2023/02/01 03:44:33;;;;;;;19.10;17.85;;;;;;;;;;5094364;28;20225;-79
2023/02/01 03:47:01;;;;;;;21.55;18.98;;;;;;;;;;5094114;28;20668;-78
2023/02/01 03:49:29;;;;;;;20.73;19.30;;;;;;;;;;5094400;28;20224;-78
2023/02/01 03:51:57;;;;;;;20.02;18.25;;;;;;;;;;5093802;28;20208;-79
2023/02/01 03:54:25;;;;;;;20.95;19.63;;;;;;;;;;5094006;28;20294;-78
2023/02/01 03:56:55;;;;;;;19.48;18.33;;;;;;;;;;5094397;28;20277;-78
2023/02/01 03:59:22;;;;;;;20.17;18.58;;;;;;;;;;5094591;28;20209;-79
2023/02/01 04:01:50;;;;;;;20.80;19.15;;;;;;;;;;5093638;28;20667;-79
2023/02/01 04:04:20;;;;;;;20.75;19.20;;;;;;;;;;5094586;28;20625;-79
2023/02/01 04:06:47;;;;;;;20.48;18.98;;;;;;;;;;5094759;28;20208;-79
2023/02/01 04:09:14;;;;;;;21.20;19.58;;;;;;;;;;5094771;28;20231;-78
2023/02/01 04:11:41;;;;;;;21.70;19.67;;;;;;;;;;5093940;28;20209;-79
2023/02/01 04:14:09;;;;;;;22.30;20.40;;;;;;;;;;5094572;28;20221;-79
2023/02/01 04:16:37;;;;;;;22.02;20.05;;;;;;;;;;5095512;28;20331;-80
2023/02/01 04:19:04;;;;;;;18.58;17.58;;;;;;;;;;5094014;28;20202;-79
2023/02/01 04:21:31;;;;;;;19.60;18.17;;;;;;;;;;5093606;28;20202;-79
2023/02/01 04:23:58;;;;;;;23.23;21.38;;;;;;;;;;5094248;28;20201;-78
2023/02/01 04:26:25;;;;;;;21.55;20.15;;;;;;;;;;5094139;28;20567;-78
2023/02/01 04:28:53;;;;;;;24.73;22.35;;;;;;;;;;5094376;28;20205;-79
2023/02/01 04:31:25;;;;;;;23.90;22.10;;;;;;;;;;5093095;28;20205;-80
2023/02/01 04:33:52;;;;;;;21.98;19.98;;;;;;;;;;5094177;28;20222;-79
2023/02/01 04:36:21;;;;;;;25.33;23.45;;;;;;;;;;5094170;28;20561;-79
2023/02/01 04:38:48;;;;;;;20.83;19.30;;;;;;;;;;5094497;28;20205;-78
2023/02/01 04:41:18;;;;;;;21.25;19.67;;;;;;;;;;5093990;28;20263;-79
2023/02/01 04:43:45;;;;;;;19.90;18.67;;;;;;;;;;5094350;28;20213;-79
2023/02/01 04:46:12;;;;;;;19.90;18.48;;;;;;;;;;5093905;28;20225;-79
2023/02/01 04:48:40;;;;;;;20.55;19.27;;;;;;;;;;5094834;28;20210;-79
2023/02/01 04:51:07;;;;;;;19.88;18.30;;;;;;;;;;5095308;28;20285;-80
2023/02/01 04:53:34;;;;;;;19.65;18.38;;;;;;;;;;5094877;28;20195;-79
2023/02/01 04:56:01;;;;;;;19.25;18.00;;;;;;;;;;5095171;28;20230;-80
2023/02/01 04:58:28;;;;;;;19.55;18.08;;;;;;;;;;5094780;28;20727;-79
2023/02/01 05:00:55;;;;;;;33.38;20.15;;;;;;;;;;5094804;28;20209;-80
2023/02/01 05:03:22;;;;;;;20.80;19.20;;;;;;;;;;5094284;28;20206;-80
2023/02/01 05:05:53;;;;;;;20.83;18.98;;;;;;;;;;5094754;28;20287;-80
2023/02/01 05:08:22;;;;;;;19.98;18.65;;;;;;;;;;5095093;28;20218;-79
2023/02/01 05:10:49;;;;;;;21.13;19.15;;;;;;;;;;5096438;28;20259;-80
2023/02/01 05:16:06;;;;;;;27.63;20.02;;;;;;;;;;5080174;28;20237;-80
2023/02/01 05:18:33;;;;;;;21.25;19.20;;;;;;;;;;5096454;28;20216;-80
2023/02/01 05:21:01;;;;;;;21.27;19.42;;;;;;;;;;5096534;28;20254;-80
2023/02/01 05:23:28;;;;;;;20.67;19.33;;;;;;;;;;5093963;28;20671;-80
2023/02/01 05:25:59;;;;;;;20.92;19.25;;;;;;;;;;5095559;28;20637;-84
2023/02/01 05:28:26;;;;;;;22.95;21.33;;;;;;;;;;5095891;28;20214;-80
2023/02/01 05:30:53;;;;;;;23.15;21.05;;;;;;;;;;5095159;28;20206;-80
2023/02/01 05:33:20;;;;;;;25.25;22.75;;;;;;;;;;5097092;28;20247;-79
2023/02/01 05:35:47;;;;;;;32.88;24.13;;;;;;;;;;5098975;28;20282;-80
2023/02/01 05:38:15;;;;;;;22.13;20.45;;;;;;;;;;5099360;28;20213;-80
2023/02/01 05:40:42;;;;;;;22.33;20.35;;;;;;;;;;5099084;28;20688;-79
2023/02/01 05:43:09;;;;;;;24.90;22.40;;;;;;;;;;5098648;28;20617;-80
2023/02/01 05:45:36;;;;;;;19.30;18.15;;;;;;;;;;5098996;28;20304;-79
2023/02/01 05:48:03;;;;;;;27.40;21.75;;;;;;;;;;5098797;28;20186;-80
2023/02/01 05:50:30;;;;;;;20.92;19.30;;;;;;;;;;5099095;28;20281;-80
2023/02/01 05:52:57;;;;;;;23.25;21.02;;;;;;;;;;5098223;28;20209;-79
2023/02/01 05:55:26;;;;;;;21.48;19.58;;;;;;;;;;5098832;28;20267;-79
2023/02/01 05:57:53;;;;;;;20.77;19.30;;;;;;;;;;5098303;28;20554;-80
2023/02/01 06:00:21;;;;;;;20.73;18.85;;;;;;;;;;5098550;28;20206;-80
2023/02/01 06:02:48;;;;;;;19.75;18.45;;;;;;;;;;5097609;28;20213;-80
2023/02/01 06:05:15;;;;;;;21.55;19.67;;;;;;;;;;5098224;28;20226;-79
2023/02/01 06:07:42;;;;;;;20.92;19.05;;;;;;;;;;5098257;28;20213;-79
2023/02/01 06:10:09;;;;;;;19.30;17.95;;;;;;;;;;5098178;28;20206;-79
2023/02/01 06:12:38;;;;;;;20.35;18.90;;;;;;;;;;5097871;28;20267;-80
2023/02/01 06:15:05;;;;;;;20.35;18.92;;;;;;;;;;5097614;28;20287;-79
2023/02/01 06:17:32;;;;;;;21.33;19.25;;;;;;;;;;5098052;28;20731;-79
2023/02/01 06:19:59;;;;;;;19.95;18.35;;;;;;;;;;5098603;28;20554;-80
2023/02/01 06:22:26;;;;;;;22.08;19.98;;;;;;;;;;5097598;28;20206;-79
2023/02/01 06:24:53;;;;;;;22.17;18.40;;;;;;;;;;5097993;28;20240;-80
2023/02/01 06:27:20;;;;;;;20.42;18.88;;;;;;;;;;5098168;28;20206;-80
2023/02/01 06:29:48;;;;;;;22.58;19.75;;;;;;;;;;5098253;28;20717;-80
2023/02/01 06:32:17;;;;;;;19.23;17.77;;;;;;;;;;5097272;28;20671;-79
2023/02/01 06:34:44;;;;;;;19.33;18.23;;;;;;;;;;5097122;28;20233;-80
2023/02/01 06:37:11;;;;;;;20.08;18.85;;;;;;;;;;5097813;28;20529;-79
2023/02/01 06:39:38;;;;;;;20.17;18.58;;;;;;;;;;5097497;28;20765;-80
2023/02/01 06:42:05;;;;;;;18.75;17.65;;;;;;;;;;5097456;28;20565;-80
2023/02/01 06:44:33;;;;;;;23.70;20.13;;;;;;;;;;5097507;28;20248;-80
2023/02/01 06:47:01;;;;;;;23.98;19.58;;;;;;;;;;5097735;28;20206;-80
2023/02/01 06:49:28;;;;;;;22.65;21.08;;;;;;;;;;5097747;28;20579;-80
2023/02/01 06:51:55;;;;;;;20.95;19.35;;;;;;;;;;5096609;28;20273;-80
2023/02/01 06:54:22;;;;;;;20.77;19.35;;;;;;;;;;5097553;28;20214;-80
2023/02/01 06:56:49;;;;;;;19.63;18.10;;;;;;;;;;5096896;28;20214;-79
2023/02/01 06:59:16;;;;;;;20.00;18.45;;;;;;;;;;5097716;28;20231;-79
2023/02/01 07:01:43;;;;;;;20.80;19.08;;;;;;;;;;5095883;28;20667;-80
2023/02/01 07:04:12;;;;;;;22.38;20.02;;;;;;;;;;5096998;28;20736;-80
2023/02/01 07:06:39;;;;;;;20.33;18.92;;;;;;;;;;5097643;28;20226;-79
2023/02/01 07:09:06;;;;;;;21.15;18.95;;;;;;;;;;5097387;28;20205;-79
2023/02/01 07:11:33;;;;;;;21.23;19.58;;;;;;;;;;5096581;28;20198;-80
2023/02/01 07:14:00;;;;;;;20.73;19.05;;;;;;;;;;5097193;28;20259;-79
2023/02/01 07:16:27;;;;;;;21.10;19.10;;;;;;;;;;5096275;28;20286;-79
2023/02/01 07:18:54;;;;;;;21.45;20.00;;;;;;;;;;5097029;28;20275;-79
2023/02/01 07:21:22;;;;;;;20.05;18.80;;;;;;;;;;5096333;28;20209;-80
2023/02/01 07:23:49;;;;;;;20.55;18.95;;;;;;;;;;5097127;28;20205;-79
2023/02/01 07:26:17;;;;;;;20.50;19.02;;;;;;;;;;5096255;28;20256;-79
2023/02/01 07:28:44;;;;;;;20.08;18.00;;;;;;;;;;5097189;28;20212;-80
2023/02/01 07:31:13;;;;;;;23.95;18.67;;;;;;;;;;5096968;28;20259;-80
2023/02/01 07:33:40;;;;;;;21.95;20.08;;;;;;;;;;5094579;28;20205;-76
2023/02/01 07:36:08;;;;;;;21.13;19.15;;;;;;;;;;5093939;28;20237;-77
2023/02/01 07:38:36;;;;;;;20.98;19.55;;;;;;;;;;5094749;28;20257;-79
2023/02/01 07:41:04;;;;;;;21.65;19.48;;;;;;;;;;5095980;28;20203;-79
2023/02/01 07:43:32;;;;;;;20.50;18.90;;;;;;;;;;5095693;28;20244;-79
2023/02/01 07:45:59;;;;;;;21.27;19.77;;;;;;;;;;5094781;28;20231;-77
2023/02/01 07:48:27;;;;;;;20.90;19.58;;;;;;;;;;5094248;28;20243;-76
2023/02/01 07:51:01;;;;;;;22.05;19.98;;;;;;;;;;5074064;28;20245;-76
2023/02/01 07:53:28;;;;;;;22.23;20.35;;;;;;;;;;5073237;28;20258;-76
2023/02/01 07:55:56;;;;;;;21.10;19.45;;;;;;;;;;5072649;28;20561;-76
2023/02/01 07:58:23;;;;;;;20.90;19.48;;;;;;;;;;5073906;28;20272;-76
2023/02/01 08:03:35;;;;;;;22.67;19.73;;;;;;;;;;5073052;28;20209;-76
2023/02/01 08:06:02;;;;;;;24.23;19.88;;;;;;;;;;5073190;28;20218;-76
2023/02/01 08:08:29;;;;;;;22.35;20.70;;;;;;;;;;5073870;28;20253;-76
2023/02/01 08:10:59;;;;;;;21.10;19.60;;;;;;;;;;5074888;28;20210;-80
2023/02/01 08:13:27;;;;;;;23.65;21.30;;;;;;;;;;5073927;28;20213;-79
2023/02/01 08:15:54;;;;;;;24.08;19.85;;;;;;;;;;5073766;28;20234;-79
2023/02/01 08:18:20;;;;;;;20.08;18.73;;;;;;;;;;5073838;28;20663;-79
2023/02/01 08:20:47;;;;;;;22.35;20.10;;;;;;;;;;5074073;28;20641;-79
2023/02/01 08:23:14;;;;;;;19.90;18.65;;;;;;;;;;5073935;28;20236;-79
2023/02/01 08:25:41;;;;;;;20.10;19.05;;;;;;;;;;5075802;28;20229;-79
2023/02/01 08:28:10;;;;;;;23.40;21.38;;;;;;;;;;5075624;28;20202;-79
2023/02/01 08:30:38;;;;;;;20.83;19.25;;;;;;;;;;5075974;28;20280;-79
2023/02/01 08:33:06;;;;;;;22.40;20.95;;;;;;;;;;5075371;28;20213;-79
2023/02/01 08:35:33;;;;;;;20.92;19.35;;;;;;;;;;5075498;28;20230;-79
2023/02/01 08:38:00;;;;;;;22.25;20.38;;;;;;;;;;5076132;28;20213;-79
2023/02/01 08:40:27;;;;;;;20.67;19.35;;;;;;;;;;5076091;28;20213;-79
2023/02/01 08:42:55;;;;;;;21.17;19.45;;;;;;;;;;5074972;28;20297;-79
2023/02/01 08:45:24;;;;;;;22.17;20.10;;;;;;;;;;5075739;28;20229;-78
2023/02/01 08:47:51;;;;;;;20.70;18.85;;;;;;;;;;5073822;28;20212;-78
2023/02/01 08:50:18;;;;;;;20.40;19.13;;;;;;;;;;5073298;28;20210;-79
2023/02/01 08:52:46;;;;;;;19.75;18.55;;;;;;;;;;5073073;28;20268;-78
2023/02/01 08:55:13;;;;;;;21.10;19.75;;;;;;;;;;5073271;28;20366;-78
2023/02/01 08:57:40;;;;;;;22.00;20.17;;;;;;;;;;5073322;28;20252;-78
2023/02/01 09:00:08;;;;;;;20.95;19.17;;;;;;;;;;5073395;28;20868;-78
2023/02/01 09:02:36;;;;;;;21.52;19.67;;;;;;;;;;5072916;28;20633;-78
2023/02/01 09:05:04;;;;;;;20.70;19.05;;;;;;;;;;5073265;28;20276;-78
2023/02/01 09:07:31;;;;;;;20.90;19.00;;;;;;;;;;5076649;28;20240;-78
2023/02/01 09:10:00;;;;;;;21.70;20.03;;;;;;;;;;5076979;28;20215;-78
2023/02/01 09:12:28;;;;;;;20.80;19.40;;;;;;;;;;5076497;28;20548;-78
2023/02/01 09:14:55;;;;;;;22.15;20.50;;;;;;;;;;5076902;28;20227;-78
2023/02/01 09:17:21;;;;;;;21.90;20.08;;;;;;;;;;5078089;28;20226;-79
2023/02/01 09:19:50;;;;;;;21.45;19.88;;;;;;;;;;5078039;28;20587;-79
2023/02/01 09:22:17;;;;;;;25.60;23.17;;;;;;;;;;5077460;28;20202;-79
2023/02/01 09:24:44;;;;;;;32.88;29.35;;;;;;;;;;5078002;28;20250;-79
2023/02/01 09:27:11;;;;;;;38.75;29.70;;;;;;;;;;5077750;28;20205;-79
2023/02/01 09:29:38;;;;;;;22.52;20.67;;;;;;;;;;5077760;28;20210;-79
2023/02/01 09:32:06;;;;;;;25.20;23.02;;;;;;;;;;5077446;28;20260;-80
2023/02/01 09:34:33;;;;;;;21.60;19.90;;;;;;;;;;5077064;28;20226;-79
2023/02/01 09:37:01;;;;;;;19.80;18.42;;;;;;;;;;5077621;28;20261;-79
2023/02/01 09:39:29;;;;;;;22.95;20.45;;;;;;;;;;5077494;28;20210;-78
2023/02/01 09:42:01;;;;;;;21.17;19.27;;;;;;;;;;5076772;28;20214;-79
2023/02/01 09:44:41;;;;;;;22.27;19.52;;;;;;;;;;5076614;28;20195;-79
2023/02/01 09:47:12;;;;;;;19.67;18.20;;;;;;;;;;5076688;28;20197;-78
2023/02/01 09:49:44;;;;;;;20.75;19.13;;;;;;;;;;5075977;28;20260;-78
2023/02/01 09:52:14;;;;;;;22.73;20.85;;;;;;;;;;5075881;28;20234;-78
2023/02/01 09:54:43;;;;;;;20.40;18.45;;;;;;;;;;5076260;28;20229;-79
2023/02/01 09:57:14;;;;;;;22.77;20.83;;;;;;;;;;5076066;28;20226;-78
2023/02/01 09:59:43;;;;;;;22.52;20.75;;;;;;;;;;5076619;28;20191;-78
2023/02/01 10:02:14;;;;;;;21.52;20.00;;;;;;;;;;5076539;28;20214;-79
2023/02/01 10:04:41;;;;;;;22.45;20.52;;;;;;;;;;5077522;28;20631;-79
2023/02/01 10:07:14;;;;;;;21.23;19.35;;;;;;;;;;5079297;28;20232;-80
2023/02/01 10:09:47;;;;;;;22.73;21.02;;;;;;;;;;5079177;28;20191;-80
2023/02/01 10:12:24;;;;;;;21.75;20.05;;;;;;;;;;5078152;28;20190;-80
2023/02/01 10:14:58;;;;;;;24.27;22.02;;;;;;;;;;5078111;28;20219;-80
2023/02/01 10:17:33;;;;;;;20.80;19.40;;;;;;;;;;5077800;28;20213;-79
2023/02/01 10:20:05;;;;;;;24.05;21.30;;;;;;;;;;5078166;28;20245;-79
2023/02/01 10:22:37;;;;;;;21.67;20.05;;;;;;;;;;5077873;28;20190;-79
2023/02/01 10:25:09;;;;;;;22.40;20.70;;;;;;;;;;5076189;28;20225;-79
2023/02/01 10:27:39;;;;;;;22.55;20.48;;;;;;;;;;5076177;28;20210;-79
2023/02/01 10:30:11;;;;;;;21.58;20.05;;;;;;;;;;5075866;28;20293;-79
2023/02/01 10:32:41;;;;;;;22.95;21.00;;;;;;;;;;5074361;28;20203;-79
2023/02/01 10:35:12;;;;;;;23.63;21.45;;;;;;;;;;5075777;28;20233;-78
2023/02/01 10:37:40;;;;;;;28.23;22.02;;;;;;;;;;5075466;28;20210;-78
2023/02/01 10:40:17;;;;;;;22.73;20.65;;;;;;;;;;5075314;28;20207;-78
2023/02/01 10:42:44;;;;;;;25.07;22.47;;;;;;;;;;5074257;28;20217;-79
2023/02/01 10:45:14;;;;;;;21.20;19.45;;;;;;;;;;5075549;28;20443;-79
2023/02/01 10:47:41;;;;;;;21.83;20.17;;;;;;;;;;5075799;28;20203;-78
2023/02/01 10:50:15;;;;;;;22.20;20.40;;;;;;;;;;5076374;28;20256;-80
2023/02/01 10:52:44;;;;;;;23.45;21.33;;;;;;;;;;5077466;28;20251;-80
2023/02/01 10:55:34;;;;;;;23.20;20.70;;;;;;;;;;5077373;28;20697;-79
2023/02/01 10:58:02;;;;;;;22.00;20.05;;;;;;;;;;5077805;28;20195;-80
2023/02/01 11:00:35;;;;;;;25.80;18.88;;;;;;;;;;5077546;28;20213;-80
2023/02/01 11:03:03;;;;;;;23.35;20.15;;;;;;;;;;5076640;28;20218;-80
2023/02/01 11:05:44;;;;;;;20.50;18.80;;;;;;;;;;5076932;28;20226;-80
2023/02/01 11:08:15;;;;;;;22.15;20.00;;;;;;;;;;5077525;28;20581;-79
2023/02/01 11:10:44;;;;;;;21.35;19.67;;;;;;;;;;5077579;28;20543;-79
2023/02/01 11:13:15;;;;;;;21.57;19.90;;;;;;;;;;5077058;28;20729;-80
2023/02/01 11:15:44;;;;;;;20.02;18.77;;;;;;;;;;5076684;28;20485;-79
2023/02/01 11:18:16;;;;;;;20.50;19.17;;;;;;;;;;5076491;28;20721;-79
2023/02/01 11:20:44;;;;;;;22.73;20.77;;;;;;;;;;5077368;28;20198;-79
2023/02/01 11:23:15;;;;;;;21.90;19.65;;;;;;;;;;5076437;28;20434;-79
2023/02/01 11:25:50;;;;;;;21.83;19.83;;;;;;;;;;5077077;28;20229;-80
2023/02/01 11:28:17;;;;;;;21.30;20.00;;;;;;;;;;5077166;28;20191;-80
2023/02/01 11:30:46;;;;;;;21.60;20.05;;;;;;;;;;5077349;28;20211;-79
2023/02/01 11:33:15;;;;;;;22.35;19.90;;;;;;;;;;5076135;28;20663;-80
2023/02/01 11:35:42;;;;;;;22.10;20.05;;;;;;;;;;5075907;28;20252;-79
2023/02/01 11:38:15;;;;;;;20.87;19.50;;;;;;;;;;5076861;28;20214;-79
2023/02/01 11:40:42;;;;;;;21.80;20.25;;;;;;;;;;5076394;28;20813;-80
2023/02/01 11:43:15;;;;;;;21.80;20.00;;;;;;;;;;5076165;28;20630;-79
2023/02/01 11:45:42;;;;;;;21.80;19.30;;;;;;;;;;5075957;28;20467;-80
2023/02/01 11:48:10;;;;;;;22.70;20.27;;;;;;;;;;5076503;28;20195;-80
2023/02/01 11:50:40;;;;;;;22.53;20.77;;;;;;;;;;5077228;28;20429;-80
2023/02/01 11:53:27;;;;;;;23.27;21.20;;;;;;;;;;5076463;28;20412;-80
2023/02/01 11:55:57;;;;;;;23.90;21.42;;;;;;;;;;5075622;28;20487;-79
2023/02/01 11:58:33;;;;;;;21.70;20.13;;;;;;;;;;5076605;28;20257;-80
2023/02/01 12:01:11;;;;;;;22.70;20.92;;;;;;;;;;5076697;28;20191;-79
2023/02/01 12:04:06;;;;;;;23.53;21.50;;;;;;;;;;5076039;28;20699;-80
2023/02/01 12:06:38;;;;;;;22.70;20.48;;;;;;;;;;5076515;28;20472;-80
2023/02/01 12:09:22;;;;;;;22.50;20.50;;;;;;;;;;5076672;28;20187;-80
2023/02/01 12:11:55;;;;;;;24.50;21.95;;;;;;;;;;5075896;28;20211;-80
2023/02/01 12:14:38;;;;;;;24.35;21.80;;;;;;;;;;5076523;28;20263;-80
2023/02/01 12:17:13;;;;;;;23.05;21.17;;;;;;;;;;5076505;28;20260;-80
2023/02/01 12:19:46;;;;;;;23.25;21.50;;;;;;;;;;5076959;28;20194;-80
2023/02/01 12:22:24;;;;;;;25.73;23.38;;;;;;;;;;5076185;28;20210;-81
2023/02/01 12:25:01;;;;;;;22.95;20.85;;;;;;;;;;5076857;28;20226;-80
2023/02/01 12:27:42;;;;;;;22.05;20.75;;;;;;;;;;5077190;28;20201;-80
2023/02/01 12:30:18;;;;;;;26.75;24.33;;;;;;;;;;5076883;28;20640;-80
2023/02/01 12:32:55;;;;;;;24.45;22.60;;;;;;;;;;5075695;28;20203;-80
2023/02/01 12:35:40;;;;;;;25.00;22.92;;;;;;;;;;5076803;28;20250;-80
2023/02/01 12:38:16;;;;;;;24.65;22.42;;;;;;;;;;5076976;28;20271;-81
2023/02/01 12:40:50;;;;;;;27.80;24.92;;;;;;;;;;5077246;28;20594;-80
2023/02/01 12:43:21;;;;;;;22.98;21.45;;;;;;;;;;5080964;28;20256;-80
2023/02/01 12:45:53;;;;;;;28.67;26.30;;;;;;;;;;5080236;28;20236;-81
2023/02/01 12:48:27;;;;;;;23.83;22.25;;;;;;;;;;5081016;28;20489;-81
2023/02/01 12:50:55;;;;;;;24.27;22.23;;;;;;;;;;5081740;28;20581;-82
2023/02/01 12:53:25;;;;;;;25.13;23.10;;;;;;;;;;5080460;28;20201;-81
2023/02/01 12:55:54;;;;;;;23.73;22.10;;;;;;;;;;5080977;28;20280;-80
2023/02/01 12:58:24;;;;;;;25.58;23.70;;;;;;;;;;5081274;28;20234;-81
2023/02/01 13:00:55;;;;;;;27.42;24.83;;;;;;;;;;5081131;28;20259;-81
2023/02/01 13:03:35;;;;;;;24.05;22.35;;;;;;;;;;5080300;28;20214;-81
2023/02/01 13:06:05;;;;;;;24.77;22.85;;;;;;;;;;5080545;28;20233;-81
2023/02/01 13:08:38;;;;;;;29.50;23.08;;;;;;;;;;5080076;28;20735;-81
2023/02/01 13:11:07;;;;;;;25.13;23.15;;;;;;;;;;5080907;28;20190;-81
2023/02/01 13:13:41;;;;;;;25.40;23.45;;;;;;;;;;5080101;28;20206;-81
2023/02/01 13:16:15;;;;;;;25.33;23.60;;;;;;;;;;5080928;28;20240;-81
2023/02/01 13:18:43;;;;;;;24.40;22.60;;;;;;;;;;5080255;28;20259;-81
2023/02/01 13:21:13;;;;;;;26.98;24.80;;;;;;;;;;5080431;28;20202;-87
2023/02/01 13:23:42;;;;;;;26.55;24.58;;;;;;;;;;5079924;28;20210;-81
2023/02/01 13:26:09;;;;;;;24.50;22.92;;;;;;;;;;5080000;28;20230;-80
2023/02/01 13:28:41;;;;;;;26.33;24.40;;;;;;;;;;5080728;28;20618;-80
2023/02/01 13:31:18;;;;;;;24.92;23.30;;;;;;;;;;5080756;28;20240;-80
2023/02/01 13:33:54;;;;;;;24.85;22.88;;;;;;;;;;5080459;28;20232;-81
2023/02/01 13:36:31;;;;;;;24.40;22.70;;;;;;;;;;5079923;28;20707;-81
2023/02/01 13:39:21;;;;;;;25.33;23.50;;;;;;;;;;5080352;28;20192;-81
2023/02/01 13:41:54;;;;;;;25.88;23.83;;;;;;;;;;5079413;28;20195;-80
2023/02/01 13:44:25;;;;;;;27.33;25.13;;;;;;;;;;5079976;28;20184;-81
2023/02/01 13:46:56;;;;;;;24.30;22.45;;;;;;;;;;5080414;28;20198;-80
2023/02/01 13:49:25;;;;;;;25.20;23.48;;;;;;;;;;5080141;28;20248;-81
2023/02/01 13:51:53;;;;;;;26.45;23.40;;;;;;;;;;5078849;28;20210;-81
2023/02/01 13:54:33;;;;;;;24.13;22.52;;;;;;;;;;5079250;28;20214;-80
2023/02/01 13:57:00;;;;;;;22.15;20.65;;;;;;;;;;5079758;28;20214;-80
2023/02/01 14:00:01;;;;;;;24.20;22.50;;;;;;;;;;5079577;28;20265;-80
2023/02/01 14:02:46;;;;;;;24.75;22.90;;;;;;;;;;5079711;28;20217;-81
2023/02/01 14:05:35;;;;;;;25.70;23.40;;;;;;;;;;5079793;28;20232;-81
2023/02/01 14:08:12;;;;;;;24.73;22.77;;;;;;;;;;5078907;28;20203;-81
2023/02/01 14:10:49;;;;;;;24.92;22.80;;;;;;;;;;5079682;28;20575;-82
2023/02/01 14:13:24;;;;;;;26.25;24.10;;;;;;;;;;5079245;28;20674;-82
2023/02/01 14:16:10;;;;;;;25.50;23.52;;;;;;;;;;5079904;28;20703;-82
2023/02/01 14:18:56;;;;;;;27.25;25.25;;;;;;;;;;5079430;28;20297;-82
2023/02/01 14:21:26;;;;;;;59.13;54.85;;;;;;;;;;5079596;28;20206;-84
2023/02/01 14:23:57;;;;;;;60.00;56.50;;;;;;;;;;5080501;28;20187;-83
2023/02/01 14:26:26;;;;;;;53.40;49.55;;;;;;;;;;5079853;28;20218;-83
2023/02/01 14:29:04;;;;;;;52.22;49.05;;;;;;;;;;5079707;28;20748;-84
2023/02/01 14:31:40;;;;;;;68.65;63.75;;;;;;;;;;5080438;28;20225;-84
2023/02/01 14:34:13;;;;;;;41.20;38.80;;;;;;;;;;5082167;28;20201;-83
2023/02/01 14:36:43;;;;;;;34.67;32.47;;;;;;;;;;5085314;28;20213;-84
2023/02/01 14:39:34;;;;;;;31.73;29.63;;;;;;;;;;5083166;28;20214;-83
2023/02/01 14:42:03;;;;;;;29.67;27.48;;;;;;;;;;5065798;28;20205;-83
2023/02/01 14:44:31;;;;;;;27.70;25.80;;;;;;;;;;5080370;28;20209;-82
2023/02/01 14:47:05;;;;;;;27.77;25.77;;;;;;;;;;5079015;28;20206;-82
2023/02/01 14:49:33;;;;;;;25.25;23.55;;;;;;;;;;5078994;28;20648;-81
2023/02/01 14:52:03;;;;;;;26.35;24.55;;;;;;;;;;5077534;28;20261;-83
2023/02/01 14:54:30;;;;;;;26.35;24.75;;;;;;;;;;5079622;28;20258;-83
2023/02/01 14:56:59;;;;;;;28.50;26.55;;;;;;;;;;5079977;28;20196;-83
2023/02/01 14:59:31;;;;;;;26.48;24.88;;;;;;;;;;5087764;28;20214;-82